sensor_id;sensor_type;location;lat;lon;timestamp;P1;durP1;ratioP1;P2;durP2;ratioP2
12603;SDS011;6367;52.508;13.284;2023-04-09T00:01:22;25.97;;;22.13;;
12603;SDS011;6367;52.508;13.284;2023-04-09T00:03:47;26.97;;;20.80;;
12603;SDS011;6367;52.508;13.284;2023-04-09T00:06:13;28.17;;;23.33;;
12603;SDS011;6367;52.508;13.284;2023-04-09T00:08:39;30.40;;;24.10;;
12603;SDS011;6367;52.508;13.284;2023-04-09T00:11:05;26.50;;;21.37;;
12603;SDS011;6367;52.508;13.284;2023-04-09T00:13:31;25.17;;;21.40;;
12603;SDS011;6367;52.508;13.284;2023-04-09T00:15:56;28.87;;;22.80;;
12603;SDS011;6367;52.508;13.284;2023-04-09T00:18:22;29.70;;;22.50;;
12603;SDS011;6367;52.508;13.284;2023-04-09T00:20:48;28.57;;;22.60;;
12603;SDS011;6367;52.508;13.284;2023-04-09T00:23:13;29.30;;;23.50;;
12603;SDS011;6367;52.508;13.284;2023-04-09T00:25:39;27.60;;;23.20;;
12603;SDS011;6367;52.508;13.284;2023-04-09T00:28:05;32.63;;;24.80;;
12603;SDS011;6367;52.508;13.284;2023-04-09T00:30:30;28.93;;;23.60;;
12603;SDS011;6367;52.508;13.284;2023-04-09T00:32:56;29.67;;;23.40;;
12603;SDS011;6367;52.508;13.284;2023-04-09T00:35:22;28.03;;;23.20;;
12603;SDS011;6367;52.508;13.284;2023-04-09T00:37:48;28.60;;;22.53;;
12603;SDS011;6367;52.508;13.284;2023-04-09T00:40:14;32.43;;;24.33;;
12603;SDS011;6367;52.508;13.284;2023-04-09T00:42:40;27.30;;;23.03;;
12603;SDS011;6367;52.508;13.284;2023-04-09T00:45:06;30.10;;;22.67;;
12603;SDS011;6367;52.508;13.284;2023-04-09T00:47:32;28.17;;;22.10;;
12603;SDS011;6367;52.508;13.284;2023-04-09T00:49:59;24.13;;;20.20;;
12603;SDS011;6367;52.508;13.284;2023-04-09T00:52:26;27.37;;;20.83;;
12603;SDS011;6367;52.508;13.284;2023-04-09T00:54:54;26.07;;;22.20;;
12603;SDS011;6367;52.508;13.284;2023-04-09T00:57:23;25.03;;;21.20;;
12603;SDS011;6367;52.508;13.284;2023-04-09T00:59:48;25.97;;;21.23;;
12603;SDS011;6367;52.508;13.284;2023-04-09T01:02:14;27.37;;;21.97;;
12603;SDS011;6367;52.508;13.284;2023-04-09T01:04:40;23.97;;;21.30;;
12603;SDS011;6367;52.508;13.284;2023-04-09T01:07:12;26.77;;;21.30;;
12603;SDS011;6367;52.508;13.284;2023-04-09T01:09:47;27.67;;;22.53;;
12603;SDS011;6367;52.508;13.284;2023-04-09T01:12:30;25.40;;;21.23;;
12603;SDS011;6367;52.508;13.284;2023-04-09T01:15:04;26.60;;;21.17;;
12603;SDS011;6367;52.508;13.284;2023-04-09T01:17:33;27.10;;;22.20;;
12603;SDS011;6367;52.508;13.284;2023-04-09T01:20:50;30.83;;;22.83;;
12603;SDS011;6367;52.508;13.284;2023-04-09T01:23:22;27.43;;;21.90;;
12603;SDS011;6367;52.508;13.284;2023-04-09T01:26:02;28.93;;;22.37;;
12603;SDS011;6367;52.508;13.284;2023-04-09T01:28:44;32.90;;;22.93;;
12603;SDS011;6367;52.508;13.284;2023-04-09T01:31:14;27.50;;;21.50;;
12603;SDS011;6367;52.508;13.284;2023-04-09T01:33:42;28.03;;;22.77;;
12603;SDS011;6367;52.508;13.284;2023-04-09T01:36:08;28.27;;;22.83;;
12603;SDS011;6367;52.508;13.284;2023-04-09T01:38:35;29.50;;;22.33;;
12603;SDS011;6367;52.508;13.284;2023-04-09T01:41:04;26.20;;;20.60;;
12603;SDS011;6367;52.508;13.284;2023-04-09T01:43:31;27.13;;;22.37;;
12603;SDS011;6367;52.508;13.284;2023-04-09T01:45:58;27.67;;;19.40;;
12603;SDS011;6367;52.508;13.284;2023-04-09T01:48:26;24.90;;;19.73;;
12603;SDS011;6367;52.508;13.284;2023-04-09T01:50:54;27.97;;;21.97;;
12603;SDS011;6367;52.508;13.284;2023-04-09T01:53:21;27.47;;;22.23;;
12603;SDS011;6367;52.508;13.284;2023-04-09T01:55:46;25.93;;;20.70;;
12603;SDS011;6367;52.508;13.284;2023-04-09T01:58:12;31.37;;;22.57;;
12603;SDS011;6367;52.508;13.284;2023-04-09T02:00:38;28.00;;;22.17;;
12603;SDS011;6367;52.508;13.284;2023-04-09T02:03:14;27.00;;;21.93;;
12603;SDS011;6367;52.508;13.284;2023-04-09T02:05:47;29.73;;;22.30;;
12603;SDS011;6367;52.508;13.284;2023-04-09T02:08:18;27.50;;;22.43;;
12603;SDS011;6367;52.508;13.284;2023-04-09T02:10:50;27.90;;;22.30;;
12603;SDS011;6367;52.508;13.284;2023-04-09T02:13:20;29.60;;;23.07;;
12603;SDS011;6367;52.508;13.284;2023-04-09T02:15:47;29.80;;;22.70;;
12603;SDS011;6367;52.508;13.284;2023-04-09T02:18:24;28.77;;;23.30;;
12603;SDS011;6367;52.508;13.284;2023-04-09T02:20:52;28.90;;;23.30;;
12603;SDS011;6367;52.508;13.284;2023-04-09T02:23:22;32.50;;;23.17;;
12603;SDS011;6367;52.508;13.284;2023-04-09T02:25:49;31.83;;;23.90;;
12603;SDS011;6367;52.508;13.284;2023-04-09T02:28:16;30.80;;;22.50;;
12603;SDS011;6367;52.508;13.284;2023-04-09T02:30:42;28.30;;;22.40;;
12603;SDS011;6367;52.508;13.284;2023-04-09T02:33:08;29.87;;;22.23;;
12603;SDS011;6367;52.508;13.284;2023-04-09T02:35:33;29.70;;;23.77;;
12603;SDS011;6367;52.508;13.284;2023-04-09T02:37:59;27.60;;;21.10;;
12603;SDS011;6367;52.508;13.284;2023-04-09T02:40:25;29.40;;;22.70;;
12603;SDS011;6367;52.508;13.284;2023-04-09T02:42:51;28.63;;;21.87;;
12603;SDS011;6367;52.508;13.284;2023-04-09T02:45:17;28.70;;;21.37;;
12603;SDS011;6367;52.508;13.284;2023-04-09T02:47:43;25.53;;;21.47;;
12603;SDS011;6367;52.508;13.284;2023-04-09T02:50:08;29.70;;;23.77;;
12603;SDS011;6367;52.508;13.284;2023-04-09T02:52:34;26.43;;;20.57;;
12603;SDS011;6367;52.508;13.284;2023-04-09T02:55:00;28.90;;;23.50;;
12603;SDS011;6367;52.508;13.284;2023-04-09T02:57:26;28.80;;;22.13;;
12603;SDS011;6367;52.508;13.284;2023-04-09T02:59:52;29.33;;;22.80;;
12603;SDS011;6367;52.508;13.284;2023-04-09T03:02:17;26.27;;;21.03;;
12603;SDS011;6367;52.508;13.284;2023-04-09T03:04:43;28.23;;;21.67;;
12603;SDS011;6367;52.508;13.284;2023-04-09T03:07:09;30.50;;;22.83;;
12603;SDS011;6367;52.508;13.284;2023-04-09T03:09:34;27.03;;;21.20;;
12603;SDS011;6367;52.508;13.284;2023-04-09T03:12:00;29.07;;;22.40;;
12603;SDS011;6367;52.508;13.284;2023-04-09T03:14:26;25.07;;;20.80;;
12603;SDS011;6367;52.508;13.284;2023-04-09T03:16:52;28.57;;;21.70;;
12603;SDS011;6367;52.508;13.284;2023-04-09T03:19:18;27.93;;;23.13;;
12603;SDS011;6367;52.508;13.284;2023-04-09T03:21:43;26.17;;;21.33;;
12603;SDS011;6367;52.508;13.284;2023-04-09T03:24:10;27.43;;;22.10;;
12603;SDS011;6367;52.508;13.284;2023-04-09T03:26:36;31.30;;;24.50;;
12603;SDS011;6367;52.508;13.284;2023-04-09T03:29:02;29.37;;;22.70;;
12603;SDS011;6367;52.508;13.284;2023-04-09T03:31:28;30.27;;;23.77;;
12603;SDS011;6367;52.508;13.284;2023-04-09T03:33:54;28.40;;;22.80;;
12603;SDS011;6367;52.508;13.284;2023-04-09T03:36:20;30.37;;;23.30;;
12603;SDS011;6367;52.508;13.284;2023-04-09T03:38:46;29.37;;;22.17;;
12603;SDS011;6367;52.508;13.284;2023-04-09T03:41:11;26.57;;;22.93;;
12603;SDS011;6367;52.508;13.284;2023-04-09T03:43:37;27.67;;;21.70;;
12603;SDS011;6367;52.508;13.284;2023-04-09T03:46:12;25.77;;;20.83;;
12603;SDS011;6367;52.508;13.284;2023-04-09T03:48:41;23.90;;;19.17;;
12603;SDS011;6367;52.508;13.284;2023-04-09T03:51:13;25.93;;;20.30;;
12603;SDS011;6367;52.508;13.284;2023-04-09T03:53:39;24.10;;;18.97;;
12603;SDS011;6367;52.508;13.284;2023-04-09T03:56:06;22.43;;;18.33;;
12603;SDS011;6367;52.508;13.284;2023-04-09T03:58:32;25.30;;;20.00;;
12603;SDS011;6367;52.508;13.284;2023-04-09T04:00:58;25.30;;;19.67;;
12603;SDS011;6367;52.508;13.284;2023-04-09T04:03:24;25.87;;;20.50;;
12603;SDS011;6367;52.508;13.284;2023-04-09T04:05:49;22.30;;;19.10;;
12603;SDS011;6367;52.508;13.284;2023-04-09T04:08:15;24.53;;;19.50;;
12603;SDS011;6367;52.508;13.284;2023-04-09T04:10:41;29.17;;;21.40;;
12603;SDS011;6367;52.508;13.284;2023-04-09T04:13:06;23.03;;;20.00;;
12603;SDS011;6367;52.508;13.284;2023-04-09T04:15:32;25.20;;;20.53;;
12603;SDS011;6367;52.508;13.284;2023-04-09T04:18:03;25.23;;;19.40;;
12603;SDS011;6367;52.508;13.284;2023-04-09T04:20:30;25.53;;;20.43;;
12603;SDS011;6367;52.508;13.284;2023-04-09T04:22:57;24.83;;;19.70;;
12603;SDS011;6367;52.508;13.284;2023-04-09T04:25:23;25.50;;;19.80;;
12603;SDS011;6367;52.508;13.284;2023-04-09T04:27:48;24.57;;;18.17;;
12603;SDS011;6367;52.508;13.284;2023-04-09T04:30:14;24.60;;;19.10;;
12603;SDS011;6367;52.508;13.284;2023-04-09T04:32:39;26.83;;;20.00;;
12603;SDS011;6367;52.508;13.284;2023-04-09T04:35:05;22.17;;;19.20;;
12603;SDS011;6367;52.508;13.284;2023-04-09T04:37:32;26.07;;;20.00;;
12603;SDS011;6367;52.508;13.284;2023-04-09T04:39:59;22.50;;;18.60;;
12603;SDS011;6367;52.508;13.284;2023-04-09T04:42:25;21.57;;;17.07;;
12603;SDS011;6367;52.508;13.284;2023-04-09T04:44:51;20.43;;;16.67;;
12603;SDS011;6367;52.508;13.284;2023-04-09T04:47:17;20.63;;;16.60;;
12603;SDS011;6367;52.508;13.284;2023-04-09T04:49:43;21.07;;;17.00;;
12603;SDS011;6367;52.508;13.284;2023-04-09T04:52:09;21.70;;;16.40;;
12603;SDS011;6367;52.508;13.284;2023-04-09T04:54:35;17.67;;;15.30;;
12603;SDS011;6367;52.508;13.284;2023-04-09T04:57:01;21.57;;;17.23;;
12603;SDS011;6367;52.508;13.284;2023-04-09T04:59:27;23.03;;;17.83;;
12603;SDS011;6367;52.508;13.284;2023-04-09T05:01:53;20.20;;;16.90;;
12603;SDS011;6367;52.508;13.284;2023-04-09T05:04:19;21.93;;;17.03;;
12603;SDS011;6367;52.508;13.284;2023-04-09T05:06:44;20.07;;;17.57;;
12603;SDS011;6367;52.508;13.284;2023-04-09T05:09:10;24.63;;;19.67;;
12603;SDS011;6367;52.508;13.284;2023-04-09T05:11:36;19.60;;;16.83;;
12603;SDS011;6367;52.508;13.284;2023-04-09T05:14:01;21.83;;;17.97;;
12603;SDS011;6367;52.508;13.284;2023-04-09T05:16:27;23.43;;;17.50;;
12603;SDS011;6367;52.508;13.284;2023-04-09T05:18:53;24.27;;;18.00;;
12603;SDS011;6367;52.508;13.284;2023-04-09T05:21:19;23.30;;;18.93;;
12603;SDS011;6367;52.508;13.284;2023-04-09T05:23:44;22.00;;;17.77;;
12603;SDS011;6367;52.508;13.284;2023-04-09T05:26:10;23.90;;;18.30;;
12603;SDS011;6367;52.508;13.284;2023-04-09T05:28:36;28.57;;;21.60;;
12603;SDS011;6367;52.508;13.284;2023-04-09T05:31:02;32.17;;;24.07;;
12603;SDS011;6367;52.508;13.284;2023-04-09T05:33:27;25.67;;;19.37;;
12603;SDS011;6367;52.508;13.284;2023-04-09T05:35:53;29.70;;;21.77;;
12603;SDS011;6367;52.508;13.284;2023-04-09T05:38:19;28.10;;;21.63;;
12603;SDS011;6367;52.508;13.284;2023-04-09T05:40:44;29.97;;;22.63;;
12603;SDS011;6367;52.508;13.284;2023-04-09T05:43:10;31.67;;;23.00;;
12603;SDS011;6367;52.508;13.284;2023-04-09T05:45:36;29.90;;;22.93;;
12603;SDS011;6367;52.508;13.284;2023-04-09T05:48:02;29.93;;;22.93;;
12603;SDS011;6367;52.508;13.284;2023-04-09T05:50:31;32.90;;;23.37;;
12603;SDS011;6367;52.508;13.284;2023-04-09T05:52:56;31.07;;;24.57;;
12603;SDS011;6367;52.508;13.284;2023-04-09T05:55:22;32.03;;;22.80;;
12603;SDS011;6367;52.508;13.284;2023-04-09T05:57:48;35.10;;;24.47;;
12603;SDS011;6367;52.508;13.284;2023-04-09T06:00:16;30.07;;;22.40;;
12603;SDS011;6367;52.508;13.284;2023-04-09T06:02:43;36.10;;;25.27;;
12603;SDS011;6367;52.508;13.284;2023-04-09T06:05:09;31.67;;;23.00;;
12603;SDS011;6367;52.508;13.284;2023-04-09T06:07:35;30.80;;;23.93;;
12603;SDS011;6367;52.508;13.284;2023-04-09T06:10:01;33.80;;;24.23;;
12603;SDS011;6367;52.508;13.284;2023-04-09T06:12:26;33.77;;;23.97;;
12603;SDS011;6367;52.508;13.284;2023-04-09T06:14:52;34.27;;;24.30;;
12603;SDS011;6367;52.508;13.284;2023-04-09T06:17:18;39.63;;;26.40;;
12603;SDS011;6367;52.508;13.284;2023-04-09T06:19:43;36.40;;;27.27;;
12603;SDS011;6367;52.508;13.284;2023-04-09T06:22:09;44.27;;;29.07;;
12603;SDS011;6367;52.508;13.284;2023-04-09T06:24:35;35.83;;;25.60;;
12603;SDS011;6367;52.508;13.284;2023-04-09T06:27:00;37.70;;;27.37;;
12603;SDS011;6367;52.508;13.284;2023-04-09T06:29:26;42.03;;;29.40;;
12603;SDS011;6367;52.508;13.284;2023-04-09T06:31:52;39.73;;;28.90;;
12603;SDS011;6367;52.508;13.284;2023-04-09T06:34:18;45.13;;;29.50;;
12603;SDS011;6367;52.508;13.284;2023-04-09T06:36:43;40.20;;;27.30;;
12603;SDS011;6367;52.508;13.284;2023-04-09T06:39:09;35.27;;;25.90;;
12603;SDS011;6367;52.508;13.284;2023-04-09T06:41:35;39.87;;;27.87;;
12603;SDS011;6367;52.508;13.284;2023-04-09T06:44:01;36.03;;;27.13;;
12603;SDS011;6367;52.508;13.284;2023-04-09T06:46:27;37.30;;;26.37;;
12603;SDS011;6367;52.508;13.284;2023-04-09T06:48:53;33.23;;;25.23;;
12603;SDS011;6367;52.508;13.284;2023-04-09T06:51:18;37.07;;;26.93;;
12603;SDS011;6367;52.508;13.284;2023-04-09T06:53:44;36.13;;;26.00;;
12603;SDS011;6367;52.508;13.284;2023-04-09T06:56:12;34.73;;;25.40;;
12603;SDS011;6367;52.508;13.284;2023-04-09T06:58:37;40.43;;;27.17;;
12603;SDS011;6367;52.508;13.284;2023-04-09T07:01:03;36.17;;;27.60;;
12603;SDS011;6367;52.508;13.284;2023-04-09T07:03:30;40.07;;;27.03;;
12603;SDS011;6367;52.508;13.284;2023-04-09T07:05:55;35.43;;;25.53;;
12603;SDS011;6367;52.508;13.284;2023-04-09T07:08:21;34.70;;;25.70;;
12603;SDS011;6367;52.508;13.284;2023-04-09T07:10:48;36.33;;;26.53;;
12603;SDS011;6367;52.508;13.284;2023-04-09T07:13:13;36.47;;;27.87;;
12603;SDS011;6367;52.508;13.284;2023-04-09T07:15:39;35.00;;;27.67;;
12603;SDS011;6367;52.508;13.284;2023-04-09T07:18:04;36.17;;;26.87;;
12603;SDS011;6367;52.508;13.284;2023-04-09T07:20:30;40.73;;;28.80;;
12603;SDS011;6367;52.508;13.284;2023-04-09T07:22:58;37.33;;;29.43;;
12603;SDS011;6367;52.508;13.284;2023-04-09T07:25:24;36.30;;;27.53;;
12603;SDS011;6367;52.508;13.284;2023-04-09T07:27:50;42.40;;;29.37;;
12603;SDS011;6367;52.508;13.284;2023-04-09T07:30:16;39.13;;;28.07;;
12603;SDS011;6367;52.508;13.284;2023-04-09T07:32:42;39.73;;;29.83;;
12603;SDS011;6367;52.508;13.284;2023-04-09T07:35:08;40.37;;;27.13;;
12603;SDS011;6367;52.508;13.284;2023-04-09T07:37:34;36.63;;;27.63;;
12603;SDS011;6367;52.508;13.284;2023-04-09T07:40:00;38.30;;;30.00;;
12603;SDS011;6367;52.508;13.284;2023-04-09T07:42:28;37.97;;;29.37;;
12603;SDS011;6367;52.508;13.284;2023-04-09T07:44:53;39.90;;;29.30;;
12603;SDS011;6367;52.508;13.284;2023-04-09T07:47:20;37.50;;;28.53;;
12603;SDS011;6367;52.508;13.284;2023-04-09T07:49:47;38.00;;;28.53;;
12603;SDS011;6367;52.508;13.284;2023-04-09T07:52:12;32.00;;;25.13;;
12603;SDS011;6367;52.508;13.284;2023-04-09T07:54:38;32.23;;;26.47;;
12603;SDS011;6367;52.508;13.284;2023-04-09T07:57:04;33.00;;;25.97;;
12603;SDS011;6367;52.508;13.284;2023-04-09T07:59:30;36.67;;;29.70;;
12603;SDS011;6367;52.508;13.284;2023-04-09T08:01:57;42.10;;;30.40;;
12603;SDS011;6367;52.508;13.284;2023-04-09T08:04:23;39.40;;;29.33;;
12603;SDS011;6367;52.508;13.284;2023-04-09T08:06:48;44.30;;;32.57;;
12603;SDS011;6367;52.508;13.284;2023-04-09T08:09:21;37.40;;;30.27;;
12603;SDS011;6367;52.508;13.284;2023-04-09T08:11:47;37.80;;;29.30;;
12603;SDS011;6367;52.508;13.284;2023-04-09T08:14:14;39.63;;;30.90;;
12603;SDS011;6367;52.508;13.284;2023-04-09T08:16:44;37.10;;;29.97;;
12603;SDS011;6367;52.508;13.284;2023-04-09T08:19:11;42.07;;;31.73;;
12603;SDS011;6367;52.508;13.284;2023-04-09T08:21:39;37.80;;;27.97;;
12603;SDS011;6367;52.508;13.284;2023-04-09T08:24:08;38.47;;;29.77;;
12603;SDS011;6367;52.508;13.284;2023-04-09T08:26:36;38.33;;;28.40;;
12603;SDS011;6367;52.508;13.284;2023-04-09T08:29:02;34.27;;;25.10;;
12603;SDS011;6367;52.508;13.284;2023-04-09T08:31:28;36.80;;;27.83;;
12603;SDS011;6367;52.508;13.284;2023-04-09T08:33:53;32.00;;;25.80;;
12603;SDS011;6367;52.508;13.284;2023-04-09T08:36:19;34.20;;;25.83;;
12603;SDS011;6367;52.508;13.284;2023-04-09T08:38:45;31.73;;;25.10;;
12603;SDS011;6367;52.508;13.284;2023-04-09T08:41:16;33.40;;;27.87;;
12603;SDS011;6367;52.508;13.284;2023-04-09T08:43:43;38.97;;;29.67;;
12603;SDS011;6367;52.508;13.284;2023-04-09T08:46:11;35.00;;;27.37;;
12603;SDS011;6367;52.508;13.284;2023-04-09T08:48:37;33.33;;;25.23;;
12603;SDS011;6367;52.508;13.284;2023-04-09T08:51:06;30.93;;;26.10;;
12603;SDS011;6367;52.508;13.284;2023-04-09T08:53:32;35.97;;;27.87;;
12603;SDS011;6367;52.508;13.284;2023-04-09T08:55:59;37.20;;;29.67;;
12603;SDS011;6367;52.508;13.284;2023-04-09T08:58:24;35.90;;;27.47;;
12603;SDS011;6367;52.508;13.284;2023-04-09T09:00:50;35.50;;;26.77;;
12603;SDS011;6367;52.508;13.284;2023-04-09T09:03:16;34.47;;;27.50;;
12603;SDS011;6367;52.508;13.284;2023-04-09T09:05:42;31.70;;;26.17;;
12603;SDS011;6367;52.508;13.284;2023-04-09T09:08:10;35.10;;;26.20;;
12603;SDS011;6367;52.508;13.284;2023-04-09T09:10:41;36.17;;;28.57;;
12603;SDS011;6367;52.508;13.284;2023-04-09T09:13:41;31.87;;;26.90;;
12603;SDS011;6367;52.508;13.284;2023-04-09T09:16:13;32.13;;;26.00;;
12603;SDS011;6367;52.508;13.284;2023-04-09T09:18:41;37.50;;;29.30;;
12603;SDS011;6367;52.508;13.284;2023-04-09T09:21:11;37.27;;;28.03;;
12603;SDS011;6367;52.508;13.284;2023-04-09T09:23:40;34.13;;;27.17;;
12603;SDS011;6367;52.508;13.284;2023-04-09T09:26:26;33.10;;;28.37;;
12603;SDS011;6367;52.508;13.284;2023-04-09T09:28:53;37.20;;;27.30;;
12603;SDS011;6367;52.508;13.284;2023-04-09T09:31:20;34.70;;;29.00;;
12603;SDS011;6367;52.508;13.284;2023-04-09T09:33:47;31.70;;;26.20;;
12603;SDS011;6367;52.508;13.284;2023-04-09T09:36:14;32.33;;;26.17;;
12603;SDS011;6367;52.508;13.284;2023-04-09T09:38:55;30.83;;;25.03;;
12603;SDS011;6367;52.508;13.284;2023-04-09T09:41:22;30.23;;;24.50;;
12603;SDS011;6367;52.508;13.284;2023-04-09T09:43:49;32.03;;;24.80;;
12603;SDS011;6367;52.508;13.284;2023-04-09T09:46:15;31.07;;;26.20;;
12603;SDS011;6367;52.508;13.284;2023-04-09T09:48:42;34.57;;;28.43;;
12603;SDS011;6367;52.508;13.284;2023-04-09T09:51:10;36.37;;;28.00;;
12603;SDS011;6367;52.508;13.284;2023-04-09T09:53:39;30.80;;;25.57;;
12603;SDS011;6367;52.508;13.284;2023-04-09T09:56:11;31.10;;;26.83;;
12603;SDS011;6367;52.508;13.284;2023-04-09T09:58:43;36.30;;;29.20;;
12603;SDS011;6367;52.508;13.284;2023-04-09T10:01:12;30.37;;;26.53;;
12603;SDS011;6367;52.508;13.284;2023-04-09T10:03:39;31.07;;;25.47;;
12603;SDS011;6367;52.508;13.284;2023-04-09T10:06:08;29.97;;;25.87;;
12603;SDS011;6367;52.508;13.284;2023-04-09T10:08:35;29.57;;;24.83;;
12603;SDS011;6367;52.508;13.284;2023-04-09T10:11:05;37.30;;;30.50;;
12603;SDS011;6367;52.508;13.284;2023-04-09T10:13:36;30.90;;;26.57;;
12603;SDS011;6367;52.508;13.284;2023-04-09T10:16:04;34.37;;;28.17;;
12603;SDS011;6367;52.508;13.284;2023-04-09T10:18:31;29.30;;;26.07;;
12603;SDS011;6367;52.508;13.284;2023-04-09T10:21:06;33.50;;;27.20;;
12603;SDS011;6367;52.508;13.284;2023-04-09T10:23:39;32.07;;;26.77;;
12603;SDS011;6367;52.508;13.284;2023-04-09T10:26:06;29.13;;;26.00;;
12603;SDS011;6367;52.508;13.284;2023-04-09T10:28:32;31.70;;;24.43;;
12603;SDS011;6367;52.508;13.284;2023-04-09T10:30:58;33.47;;;26.93;;
12603;SDS011;6367;52.508;13.284;2023-04-09T10:33:25;29.27;;;25.20;;
12603;SDS011;6367;52.508;13.284;2023-04-09T10:35:58;26.93;;;23.13;;
12603;SDS011;6367;52.508;13.284;2023-04-09T10:38:35;26.03;;;22.40;;
12603;SDS011;6367;52.508;13.284;2023-04-09T10:41:15;29.97;;;24.40;;
12603;SDS011;6367;52.508;13.284;2023-04-09T10:43:46;23.67;;;20.30;;
12603;SDS011;6367;52.508;13.284;2023-04-09T10:46:34;25.97;;;23.20;;
12603;SDS011;6367;52.508;13.284;2023-04-09T10:51:38;27.50;;;23.43;;
12603;SDS011;6367;52.508;13.284;2023-04-09T10:54:05;29.50;;;24.27;;
12603;SDS011;6367;52.508;13.284;2023-04-09T10:57:20;26.07;;;23.27;;
12603;SDS011;6367;52.508;13.284;2023-04-09T10:59:48;26.60;;;23.53;;
12603;SDS011;6367;52.508;13.284;2023-04-09T11:07:48;24.80;;;21.20;;
12603;SDS011;6367;52.508;13.284;2023-04-09T11:10:22;27.53;;;22.17;;
12603;SDS011;6367;52.508;13.284;2023-04-09T11:12:48;24.73;;;20.47;;
12603;SDS011;6367;52.508;13.284;2023-04-09T11:15:17;20.50;;;18.40;;
12603;SDS011;6367;52.508;13.284;2023-04-09T11:17:45;21.00;;;17.30;;
12603;SDS011;6367;52.508;13.284;2023-04-09T11:20:12;21.47;;;19.17;;
12603;SDS011;6367;52.508;13.284;2023-04-09T11:22:39;22.70;;;19.90;;
12603;SDS011;6367;52.508;13.284;2023-04-09T11:25:04;21.50;;;19.23;;
12603;SDS011;6367;52.508;13.284;2023-04-09T11:27:35;19.13;;;17.13;;
12603;SDS011;6367;52.508;13.284;2023-04-09T11:30:02;21.50;;;18.73;;
12603;SDS011;6367;52.508;13.284;2023-04-09T11:32:31;20.87;;;18.63;;
12603;SDS011;6367;52.508;13.284;2023-04-09T11:34:57;21.03;;;18.10;;
12603;SDS011;6367;52.508;13.284;2023-04-09T11:37:23;20.73;;;17.60;;
12603;SDS011;6367;52.508;13.284;2023-04-09T11:39:49;18.77;;;16.77;;
12603;SDS011;6367;52.508;13.284;2023-04-09T11:42:18;22.53;;;20.13;;
12603;SDS011;6367;52.508;13.284;2023-04-09T11:44:44;21.93;;;19.53;;
12603;SDS011;6367;52.508;13.284;2023-04-09T11:47:11;23.17;;;18.53;;
12603;SDS011;6367;52.508;13.284;2023-04-09T11:49:38;19.00;;;17.00;;
12603;SDS011;6367;52.508;13.284;2023-04-09T11:52:05;19.23;;;17.10;;
12603;SDS011;6367;52.508;13.284;2023-04-09T11:54:34;22.70;;;20.30;;
12603;SDS011;6367;52.508;13.284;2023-04-09T11:57:02;20.63;;;18.43;;
12603;SDS011;6367;52.508;13.284;2023-04-09T11:59:28;21.20;;;18.30;;
12603;SDS011;6367;52.508;13.284;2023-04-09T12:01:56;18.17;;;15.97;;
12603;SDS011;6367;52.508;13.284;2023-04-09T12:04:22;18.30;;;15.20;;
12603;SDS011;6367;52.508;13.284;2023-04-09T12:06:47;20.13;;;16.27;;
12603;SDS011;6367;52.508;13.284;2023-04-09T12:09:13;17.23;;;15.43;;
12603;SDS011;6367;52.508;13.284;2023-04-09T12:11:42;20.53;;;18.43;;
12603;SDS011;6367;52.508;13.284;2023-04-09T12:14:12;21.97;;;17.40;;
12603;SDS011;6367;52.508;13.284;2023-04-09T12:16:41;19.17;;;15.60;;
12603;SDS011;6367;52.508;13.284;2023-04-09T12:19:10;20.10;;;17.23;;
12603;SDS011;6367;52.508;13.284;2023-04-09T12:24:17;17.40;;;15.47;;
12603;SDS011;6367;52.508;13.284;2023-04-09T12:26:44;17.10;;;15.40;;
12603;SDS011;6367;52.508;13.284;2023-04-09T12:29:11;17.47;;;15.70;;
12603;SDS011;6367;52.508;13.284;2023-04-09T12:31:38;17.83;;;15.90;;
12603;SDS011;6367;52.508;13.284;2023-04-09T12:34:04;17.60;;;15.57;;
12603;SDS011;6367;52.508;13.284;2023-04-09T12:36:30;18.27;;;16.37;;
12603;SDS011;6367;52.508;13.284;2023-04-09T12:38:55;17.40;;;15.60;;
12603;SDS011;6367;52.508;13.284;2023-04-09T12:41:21;17.50;;;15.23;;
12603;SDS011;6367;52.508;13.284;2023-04-09T12:43:47;17.20;;;14.97;;
12603;SDS011;6367;52.508;13.284;2023-04-09T12:46:13;18.63;;;15.20;;
12603;SDS011;6367;52.508;13.284;2023-04-09T12:48:39;17.10;;;14.83;;
12603;SDS011;6367;52.508;13.284;2023-04-09T12:51:05;18.87;;;15.30;;
12603;SDS011;6367;52.508;13.284;2023-04-09T12:53:31;16.00;;;14.30;;
12603;SDS011;6367;52.508;13.284;2023-04-09T12:55:57;16.70;;;15.00;;
12603;SDS011;6367;52.508;13.284;2023-04-09T12:58:22;15.93;;;13.33;;
12603;SDS011;6367;52.508;13.284;2023-04-09T13:00:48;16.97;;;13.87;;
12603;SDS011;6367;52.508;13.284;2023-04-09T13:03:14;15.80;;;13.50;;
12603;SDS011;6367;52.508;13.284;2023-04-09T13:05:42;18.97;;;16.53;;
12603;SDS011;6367;52.508;13.284;2023-04-09T13:08:08;22.60;;;17.47;;
12603;SDS011;6367;52.508;13.284;2023-04-09T13:10:34;17.10;;;14.63;;
12603;SDS011;6367;52.508;13.284;2023-04-09T13:13:00;16.40;;;14.70;;
12603;SDS011;6367;52.508;13.284;2023-04-09T13:15:26;16.90;;;14.07;;
12603;SDS011;6367;52.508;13.284;2023-04-09T13:17:52;14.17;;;12.53;;
12603;SDS011;6367;52.508;13.284;2023-04-09T13:20:18;17.87;;;15.43;;
12603;SDS011;6367;52.508;13.284;2023-04-09T13:22:45;16.00;;;14.30;;
12603;SDS011;6367;52.508;13.284;2023-04-09T13:25:13;15.43;;;13.27;;
12603;SDS011;6367;52.508;13.284;2023-04-09T13:27:42;14.37;;;12.50;;
12603;SDS011;6367;52.508;13.284;2023-04-09T13:30:08;14.53;;;12.73;;
12603;SDS011;6367;52.508;13.284;2023-04-09T13:32:33;16.17;;;13.20;;
12603;SDS011;6367;52.508;13.284;2023-04-09T13:34:59;16.17;;;14.03;;
12603;SDS011;6367;52.508;13.284;2023-04-09T13:37:25;14.50;;;12.67;;
12603;SDS011;6367;52.508;13.284;2023-04-09T13:39:51;17.53;;;14.60;;
12603;SDS011;6367;52.508;13.284;2023-04-09T13:42:16;13.60;;;12.23;;
12603;SDS011;6367;52.508;13.284;2023-04-09T13:44:43;14.87;;;13.37;;
12603;SDS011;6367;52.508;13.284;2023-04-09T13:47:13;14.10;;;11.90;;
12603;SDS011;6367;52.508;13.284;2023-04-09T13:49:40;12.80;;;11.50;;
12603;SDS011;6367;52.508;13.284;2023-04-09T13:52:06;15.20;;;12.90;;
12603;SDS011;6367;52.508;13.284;2023-04-09T13:54:33;16.00;;;13.33;;
12603;SDS011;6367;52.508;13.284;2023-04-09T13:56:58;14.27;;;12.77;;
12603;SDS011;6367;52.508;13.284;2023-04-09T13:59:24;17.10;;;15.30;;
12603;SDS011;6367;52.508;13.284;2023-04-09T14:01:50;13.97;;;12.10;;
12603;SDS011;6367;52.508;13.284;2023-04-09T14:04:16;13.70;;;12.30;;
12603;SDS011;6367;52.508;13.284;2023-04-09T14:06:43;13.70;;;12.20;;
12603;SDS011;6367;52.508;13.284;2023-04-09T14:09:09;12.90;;;11.17;;
12603;SDS011;6367;52.508;13.284;2023-04-09T14:11:35;14.23;;;12.73;;
12603;SDS011;6367;52.508;13.284;2023-04-09T14:14:01;15.00;;;13.50;;
12603;SDS011;6367;52.508;13.284;2023-04-09T14:16:27;12.80;;;11.53;;
12603;SDS011;6367;52.508;13.284;2023-04-09T14:18:54;10.13;;;9.13;;
12603;SDS011;6367;52.508;13.284;2023-04-09T14:21:20;13.70;;;11.83;;
12603;SDS011;6367;52.508;13.284;2023-04-09T14:23:46;11.20;;;10.10;;
12603;SDS011;6367;52.508;13.284;2023-04-09T14:26:12;13.97;;;12.43;;
12603;SDS011;6367;52.508;13.284;2023-04-09T14:28:38;12.30;;;11.07;;
12603;SDS011;6367;52.508;13.284;2023-04-09T14:31:04;11.60;;;10.37;;
12603;SDS011;6367;52.508;13.284;2023-04-09T14:33:30;10.50;;;9.50;;